sensor_id;sensor_type;location;lat;lon;timestamp;P1;durP1;ratioP1;P2;durP2;ratioP2
59974;SDS011;62136;-35.664;-63.766;2022-11-11T00:02:17;7.75;;;2.60;;
59974;SDS011;62136;-35.664;-63.766;2022-11-11T00:04:45;5.18;;;2.90;;
59974;SDS011;62136;-35.664;-63.766;2022-11-11T00:07:15;6.50;;;2.70;;
59974;SDS011;62136;-35.664;-63.766;2022-11-11T00:09:42;10.13;;;3.30;;
59974;SDS011;62136;-35.664;-63.766;2022-11-11T00:12:09;8.98;;;2.97;;
59974;SDS011;62136;-35.664;-63.766;2022-11-11T00:14:36;11.32;;;3.65;;
59974;SDS011;62136;-35.664;-63.766;2022-11-11T00:17:03;12.52;;;3.70;;
59974;SDS011;62136;-35.664;-63.766;2022-11-11T00:19:48;10.38;;;3.60;;
59974;SDS011;62136;-35.664;-63.766;2022-11-11T00:22:33;11.75;;;3.58;;
59974;SDS011;62136;-35.664;-63.766;2022-11-11T00:25:18;12.95;;;4.20;;
59974;SDS011;62136;-35.664;-63.766;2022-11-11T00:27:46;14.45;;;4.07;;
59974;SDS011;62136;-35.664;-63.766;2022-11-11T00:30:13;14.10;;;3.58;;
59974;SDS011;62136;-35.664;-63.766;2022-11-11T00:32:40;15.85;;;4.15;;
59974;SDS011;62136;-35.664;-63.766;2022-11-11T00:35:07;29.63;;;5.78;;
59974;SDS011;62136;-35.664;-63.766;2022-11-11T00:37:53;28.48;;;5.63;;
59974;SDS011;62136;-35.664;-63.766;2022-11-11T00:40:20;10.02;;;3.88;;
59974;SDS011;62136;-35.664;-63.766;2022-11-11T00:42:50;21.15;;;4.85;;
59974;SDS011;62136;-35.664;-63.766;2022-11-11T00:45:29;18.02;;;5.38;;
59974;SDS011;62136;-35.664;-63.766;2022-11-11T00:47:57;24.35;;;5.07;;
59974;SDS011;62136;-35.664;-63.766;2022-11-11T00:50:42;24.13;;;5.88;;
59974;SDS011;62136;-35.664;-63.766;2022-11-11T00:53:25;25.10;;;4.35;;
59974;SDS011;62136;-35.664;-63.766;2022-11-11T00:55:55;16.33;;;5.03;;
59974;SDS011;62136;-35.664;-63.766;2022-11-11T00:58:22;19.25;;;4.85;;
59974;SDS011;62136;-35.664;-63.766;2022-11-11T01:00:52;26.80;;;5.57;;
59974;SDS011;62136;-35.664;-63.766;2022-11-11T01:03:19;26.83;;;6.03;;
59974;SDS011;62136;-35.664;-63.766;2022-11-11T01:05:47;24.65;;;5.32;;
59974;SDS011;62136;-35.664;-63.766;2022-11-11T01:08:14;20.77;;;5.15;;
59974;SDS011;62136;-35.664;-63.766;2022-11-11T01:10:41;16.48;;;4.70;;
59974;SDS011;62136;-35.664;-63.766;2022-11-11T01:13:16;19.73;;;5.00;;
59974;SDS011;62136;-35.664;-63.766;2022-11-11T01:15:59;16.45;;;4.43;;
59974;SDS011;62136;-35.664;-63.766;2022-11-11T01:18:32;11.82;;;4.72;;
59974;SDS011;62136;-35.664;-63.766;2022-11-11T01:21:00;16.55;;;4.38;;
59974;SDS011;62136;-35.664;-63.766;2022-11-11T01:23:28;19.30;;;4.88;;
59974;SDS011;62136;-35.664;-63.766;2022-11-11T01:26:08;11.20;;;4.30;;
59974;SDS011;62136;-35.664;-63.766;2022-11-11T01:28:43;12.93;;;4.60;;
59974;SDS011;62136;-35.664;-63.766;2022-11-11T01:31:14;13.85;;;4.18;;
59974;SDS011;62136;-35.664;-63.766;2022-11-11T01:33:42;12.63;;;4.20;;
59974;SDS011;62136;-35.664;-63.766;2022-11-11T01:36:11;16.77;;;4.85;;
59974;SDS011;62136;-35.664;-63.766;2022-11-11T01:38:39;14.73;;;4.13;;
59974;SDS011;62136;-35.664;-63.766;2022-11-11T01:41:11;19.52;;;4.32;;
59974;SDS011;62136;-35.664;-63.766;2022-11-11T01:43:58;13.80;;;5.18;;
59974;SDS011;62136;-35.664;-63.766;2022-11-11T01:51:48;13.43;;;4.40;;
59974;SDS011;62136;-35.664;-63.766;2022-11-11T01:54:33;13.02;;;3.90;;
59974;SDS011;62136;-35.664;-63.766;2022-11-11T01:57:05;13.52;;;4.43;;
59974;SDS011;62136;-35.664;-63.766;2022-11-11T01:59:38;8.60;;;3.88;;
59974;SDS011;62136;-35.664;-63.766;2022-11-11T02:02:14;20.30;;;4.72;;
59974;SDS011;62136;-35.664;-63.766;2022-11-11T02:04:50;13.00;;;4.28;;
59974;SDS011;62136;-35.664;-63.766;2022-11-11T02:07:39;9.48;;;3.80;;
59974;SDS011;62136;-35.664;-63.766;2022-11-11T02:10:07;11.02;;;3.58;;
59974;SDS011;62136;-35.664;-63.766;2022-11-11T02:12:35;9.38;;;3.97;;
59974;SDS011;62136;-35.664;-63.766;2022-11-11T02:15:20;10.70;;;4.05;;
59974;SDS011;62136;-35.664;-63.766;2022-11-11T02:17:47;9.18;;;3.40;;
59974;SDS011;62136;-35.664;-63.766;2022-11-11T02:20:19;7.85;;;3.47;;
59974;SDS011;62136;-35.664;-63.766;2022-11-11T02:25:34;8.27;;;3.65;;
59974;SDS011;62136;-35.664;-63.766;2022-11-11T02:28:04;8.77;;;3.75;;
59974;SDS011;62136;-35.664;-63.766;2022-11-11T02:30:33;8.50;;;3.50;;
59974;SDS011;62136;-35.664;-63.766;2022-11-11T02:33:00;6.65;;;3.90;;
59974;SDS011;62136;-35.664;-63.766;2022-11-11T02:35:37;9.07;;;3.92;;
59974;SDS011;62136;-35.664;-63.766;2022-11-11T02:38:12;10.10;;;3.70;;
59974;SDS011;62136;-35.664;-63.766;2022-11-11T02:40:44;7.07;;;3.95;;
59974;SDS011;62136;-35.664;-63.766;2022-11-11T02:43:30;8.25;;;3.70;;
59974;SDS011;62136;-35.664;-63.766;2022-11-11T02:45:59;7.10;;;3.40;;
59974;SDS011;62136;-35.664;-63.766;2022-11-11T02:48:27;9.50;;;3.80;;
59974;SDS011;62136;-35.664;-63.766;2022-11-11T02:50:54;10.27;;;3.35;;
59974;SDS011;62136;-35.664;-63.766;2022-11-11T02:53:22;8.90;;;3.15;;
59974;SDS011;62136;-35.664;-63.766;2022-11-11T02:55:49;10.50;;;3.53;;
59974;SDS011;62136;-35.664;-63.766;2022-11-11T02:58:16;6.18;;;3.40;;
59974;SDS011;62136;-35.664;-63.766;2022-11-11T03:00:43;6.82;;;3.50;;
59974;SDS011;62136;-35.664;-63.766;2022-11-11T03:03:10;6.65;;;3.45;;
59974;SDS011;62136;-35.664;-63.766;2022-11-11T03:05:37;6.60;;;3.33;;
59974;SDS011;62136;-35.664;-63.766;2022-11-11T03:08:05;7.18;;;3.42;;
59974;SDS011;62136;-35.664;-63.766;2022-11-11T03:10:32;9.52;;;3.30;;
59974;SDS011;62136;-35.664;-63.766;2022-11-11T03:12:59;6.80;;;3.67;;
59974;SDS011;62136;-35.664;-63.766;2022-11-11T03:15:26;7.30;;;3.55;;
59974;SDS011;62136;-35.664;-63.766;2022-11-11T03:17:53;10.25;;;4.10;;
59974;SDS011;62136;-35.664;-63.766;2022-11-11T03:20:20;9.65;;;2.97;;
59974;SDS011;62136;-35.664;-63.766;2022-11-11T03:23:09;6.60;;;3.15;;
59974;SDS011;62136;-35.664;-63.766;2022-11-11T03:25:38;4.25;;;3.00;;
59974;SDS011;62136;-35.664;-63.766;2022-11-11T03:28:11;3.83;;;2.72;;
59974;SDS011;62136;-35.664;-63.766;2022-11-11T03:30:40;7.78;;;3.20;;
59974;SDS011;62136;-35.664;-63.766;2022-11-11T03:33:09;6.35;;;3.30;;
59974;SDS011;62136;-35.664;-63.766;2022-11-11T03:35:37;4.75;;;3.42;;
59974;SDS011;62136;-35.664;-63.766;2022-11-11T03:38:08;5.57;;;2.88;;
59974;SDS011;62136;-35.664;-63.766;2022-11-11T03:40:52;5.00;;;3.08;;
59974;SDS011;62136;-35.664;-63.766;2022-11-11T03:43:23;5.60;;;3.13;;
59974;SDS011;62136;-35.664;-63.766;2022-11-11T03:45:59;6.85;;;3.42;;
59974;SDS011;62136;-35.664;-63.766;2022-11-11T03:48:28;4.60;;;2.80;;
59974;SDS011;62136;-35.664;-63.766;2022-11-11T03:50:56;5.97;;;3.05;;
59974;SDS011;62136;-35.664;-63.766;2022-11-11T03:53:24;4.00;;;2.70;;
59974;SDS011;62136;-35.664;-63.766;2022-11-11T03:55:51;4.55;;;2.83;;
59974;SDS011;62136;-35.664;-63.766;2022-11-11T03:58:18;5.57;;;2.53;;
59974;SDS011;62136;-35.664;-63.766;2022-11-11T04:00:45;5.90;;;3.28;;
59974;SDS011;62136;-35.664;-63.766;2022-11-11T04:03:13;5.55;;;3.33;;
59974;SDS011;62136;-35.664;-63.766;2022-11-11T04:06:03;6.43;;;2.92;;
59974;SDS011;62136;-35.664;-63.766;2022-11-11T04:08:49;5.10;;;2.88;;
59974;SDS011;62136;-35.664;-63.766;2022-11-11T04:11:38;5.75;;;3.00;;
59974;SDS011;62136;-35.664;-63.766;2022-11-11T04:14:08;7.00;;;3.17;;
59974;SDS011;62136;-35.664;-63.766;2022-11-11T04:16:54;5.03;;;2.92;;
59974;SDS011;62136;-35.664;-63.766;2022-11-11T04:19:21;5.57;;;2.95;;
59974;SDS011;62136;-35.664;-63.766;2022-11-11T04:22:07;5.32;;;2.67;;
59974;SDS011;62136;-35.664;-63.766;2022-11-11T04:24:34;4.70;;;2.75;;
59974;SDS011;62136;-35.664;-63.766;2022-11-11T04:27:20;8.18;;;2.97;;
59974;SDS011;62136;-35.664;-63.766;2022-11-11T04:29:47;5.25;;;2.83;;
59974;SDS011;62136;-35.664;-63.766;2022-11-11T04:32:17;7.53;;;3.13;;
59974;SDS011;62136;-35.664;-63.766;2022-11-11T04:35:02;5.88;;;2.80;;
59974;SDS011;62136;-35.664;-63.766;2022-11-11T04:37:48;4.50;;;2.78;;
59974;SDS011;62136;-35.664;-63.766;2022-11-11T04:40:38;3.50;;;2.63;;
59974;SDS011;62136;-35.664;-63.766;2022-11-11T04:43:23;6.25;;;3.33;;
59974;SDS011;62136;-35.664;-63.766;2022-11-11T04:45:53;4.78;;;2.80;;
59974;SDS011;62136;-35.664;-63.766;2022-11-11T04:48:24;4.10;;;2.80;;
59974;SDS011;62136;-35.664;-63.766;2022-11-11T04:50:53;6.57;;;2.90;;
59974;SDS011;62136;-35.664;-63.766;2022-11-11T04:53:20;3.08;;;2.80;;
59974;SDS011;62136;-35.664;-63.766;2022-11-11T04:55:47;4.45;;;2.35;;
59974;SDS011;62136;-35.664;-63.766;2022-11-11T04:58:33;4.13;;;2.40;;
59974;SDS011;62136;-35.664;-63.766;2022-11-11T05:01:03;4.45;;;2.67;;
59974;SDS011;62136;-35.664;-63.766;2022-11-11T05:03:30;4.30;;;2.88;;
59974;SDS011;62136;-35.664;-63.766;2022-11-11T05:05:58;6.72;;;2.92;;
59974;SDS011;62136;-35.664;-63.766;2022-11-11T05:08:47;3.67;;;2.70;;
59974;SDS011;62136;-35.664;-63.766;2022-11-11T05:11:30;3.60;;;2.53;;
59974;SDS011;62136;-35.664;-63.766;2022-11-11T05:14:00;3.47;;;2.78;;
59974;SDS011;62136;-35.664;-63.766;2022-11-11T05:16:47;5.68;;;2.80;;
59974;SDS011;62136;-35.664;-63.766;2022-11-11T05:19:35;4.85;;;2.83;;
59974;SDS011;62136;-35.664;-63.766;2022-11-11T05:25:04;5.75;;;3.30;;
59974;SDS011;62136;-35.664;-63.766;2022-11-11T05:27:53;5.22;;;2.90;;
59974;SDS011;62136;-35.664;-63.766;2022-11-11T05:30:22;2.97;;;2.60;;
59974;SDS011;62136;-35.664;-63.766;2022-11-11T05:32:50;5.68;;;3.05;;
59974;SDS011;62136;-35.664;-63.766;2022-11-11T05:35:19;3.45;;;2.70;;
59974;SDS011;62136;-35.664;-63.766;2022-11-11T05:37:46;6.60;;;2.83;;
59974;SDS011;62136;-35.664;-63.766;2022-11-11T05:40:31;3.58;;;2.60;;
59974;SDS011;62136;-35.664;-63.766;2022-11-11T05:42:58;3.88;;;3.05;;
59974;SDS011;62136;-35.664;-63.766;2022-11-11T05:45:25;4.13;;;2.80;;
59974;SDS011;62136;-35.664;-63.766;2022-11-11T05:47:52;3.72;;;2.80;;
59974;SDS011;62136;-35.664;-63.766;2022-11-11T05:50:19;4.95;;;2.80;;
59974;SDS011;62136;-35.664;-63.766;2022-11-11T05:52:49;3.40;;;2.80;;
59974;SDS011;62136;-35.664;-63.766;2022-11-11T05:55:16;4.82;;;3.20;;
59974;SDS011;62136;-35.664;-63.766;2022-11-11T05:57:43;4.07;;;3.08;;
59974;SDS011;62136;-35.664;-63.766;2022-11-11T06:00:10;5.43;;;2.63;;
59974;SDS011;62136;-35.664;-63.766;2022-11-11T06:02:37;2.70;;;2.35;;
59974;SDS011;62136;-35.664;-63.766;2022-11-11T06:05:05;3.40;;;2.63;;
59974;SDS011;62136;-35.664;-63.766;2022-11-11T06:07:35;4.13;;;2.83;;
59974;SDS011;62136;-35.664;-63.766;2022-11-11T06:10:04;4.38;;;2.50;;
59974;SDS011;62136;-35.664;-63.766;2022-11-11T06:12:50;4.10;;;2.80;;
59974;SDS011;62136;-35.664;-63.766;2022-11-11T06:18:02;3.33;;;2.28;;
59974;SDS011;62136;-35.664;-63.766;2022-11-11T06:20:30;4.47;;;2.47;;
59974;SDS011;62136;-35.664;-63.766;2022-11-11T06:23:00;4.93;;;2.70;;
59974;SDS011;62136;-35.664;-63.766;2022-11-11T06:25:28;4.75;;;2.53;;
59974;SDS011;62136;-35.664;-63.766;2022-11-11T06:28:14;5.13;;;2.47;;
59974;SDS011;62136;-35.664;-63.766;2022-11-11T06:30:42;3.55;;;2.70;;
59974;SDS011;62136;-35.664;-63.766;2022-11-11T06:33:11;4.80;;;2.95;;
59974;SDS011;62136;-35.664;-63.766;2022-11-11T06:35:38;2.42;;;2.20;;
59974;SDS011;62136;-35.664;-63.766;2022-11-11T06:38:08;3.08;;;2.42;;
59974;SDS011;62136;-35.664;-63.766;2022-11-11T06:40:38;3.05;;;2.38;;
59974;SDS011;62136;-35.664;-63.766;2022-11-11T06:43:07;3.90;;;2.53;;
59974;SDS011;62136;-35.664;-63.766;2022-11-11T06:45:34;4.20;;;2.72;;
59974;SDS011;62136;-35.664;-63.766;2022-11-11T06:48:02;2.83;;;2.50;;
59974;SDS011;62136;-35.664;-63.766;2022-11-11T06:50:32;3.53;;;2.28;;
59974;SDS011;62136;-35.664;-63.766;2022-11-11T06:53:04;3.47;;;2.50;;
59974;SDS011;62136;-35.664;-63.766;2022-11-11T06:55:38;3.38;;;2.20;;
59974;SDS011;62136;-35.664;-63.766;2022-11-11T06:58:06;3.80;;;2.60;;
59974;SDS011;62136;-35.664;-63.766;2022-11-11T07:00:38;3.13;;;2.40;;
59974;SDS011;62136;-35.664;-63.766;2022-11-11T07:03:06;3.13;;;2.28;;
59974;SDS011;62136;-35.664;-63.766;2022-11-11T07:05:36;2.95;;;2.40;;
59974;SDS011;62136;-35.664;-63.766;2022-11-11T07:08:03;4.80;;;2.42;;
59974;SDS011;62136;-35.664;-63.766;2022-11-11T07:10:32;3.92;;;2.90;;
59974;SDS011;62136;-35.664;-63.766;2022-11-11T07:13:02;2.65;;;2.42;;
59974;SDS011;62136;-35.664;-63.766;2022-11-11T07:15:30;2.42;;;2.10;;
59974;SDS011;62136;-35.664;-63.766;2022-11-11T07:17:57;3.67;;;2.28;;
59974;SDS011;62136;-35.664;-63.766;2022-11-11T07:20:25;4.65;;;2.38;;
59974;SDS011;62136;-35.664;-63.766;2022-11-11T07:22:52;5.00;;;2.60;;
59974;SDS011;62136;-35.664;-63.766;2022-11-11T07:25:20;3.20;;;2.08;;
59974;SDS011;62136;-35.664;-63.766;2022-11-11T07:27:47;3.83;;;2.42;;
59974;SDS011;62136;-35.664;-63.766;2022-11-11T07:30:14;3.05;;;2.17;;
59974;SDS011;62136;-35.664;-63.766;2022-11-11T07:32:45;2.70;;;2.08;;
59974;SDS011;62136;-35.664;-63.766;2022-11-11T07:35:13;2.47;;;2.15;;
59974;SDS011;62136;-35.664;-63.766;2022-11-11T07:37:42;4.60;;;2.78;;
59974;SDS011;62136;-35.664;-63.766;2022-11-11T07:40:10;2.35;;;1.88;;
59974;SDS011;62136;-35.664;-63.766;2022-11-11T07:42:40;3.60;;;2.40;;
59974;SDS011;62136;-35.664;-63.766;2022-11-11T07:45:08;2.88;;;2.30;;
59974;SDS011;62136;-35.664;-63.766;2022-11-11T07:47:37;2.60;;;2.20;;
59974;SDS011;62136;-35.664;-63.766;2022-11-11T07:50:10;2.53;;;1.80;;
59974;SDS011;62136;-35.664;-63.766;2022-11-11T07:52:38;2.85;;;2.15;;
59974;SDS011;62136;-35.664;-63.766;2022-11-11T07:55:06;2.42;;;2.10;;
59974;SDS011;62136;-35.664;-63.766;2022-11-11T07:57:33;3.20;;;2.28;;
59974;SDS011;62136;-35.664;-63.766;2022-11-11T08:00:01;2.50;;;2.13;;
59974;SDS011;62136;-35.664;-63.766;2022-11-11T08:02:28;2.72;;;2.38;;
59974;SDS011;62136;-35.664;-63.766;2022-11-11T08:04:55;2.42;;;1.88;;
59974;SDS011;62136;-35.664;-63.766;2022-11-11T08:07:23;3.47;;;2.40;;
59974;SDS011;62136;-35.664;-63.766;2022-11-11T08:09:50;4.35;;;2.22;;
59974;SDS011;62136;-35.664;-63.766;2022-11-11T08:12:17;2.35;;;2.15;;
59974;SDS011;62136;-35.664;-63.766;2022-11-11T08:15:02;2.65;;;2.25;;
59974;SDS011;62136;-35.664;-63.766;2022-11-11T08:17:30;3.40;;;1.90;;
59974;SDS011;62136;-35.664;-63.766;2022-11-11T08:20:05;2.65;;;2.13;;
59974;SDS011;62136;-35.664;-63.766;2022-11-11T08:22:35;2.95;;;2.30;;
59974;SDS011;62136;-35.664;-63.766;2022-11-11T08:25:03;2.85;;;2.00;;
59974;SDS011;62136;-35.664;-63.766;2022-11-11T08:27:32;3.00;;;2.08;;
59974;SDS011;62136;-35.664;-63.766;2022-11-11T08:30:00;3.47;;;2.20;;
59974;SDS011;62136;-35.664;-63.766;2022-11-11T08:32:27;2.92;;;2.20;;
59974;SDS011;62136;-35.664;-63.766;2022-11-11T08:34:54;2.67;;;2.20;;
59974;SDS011;62136;-35.664;-63.766;2022-11-11T08:37:21;4.53;;;2.70;;
59974;SDS011;62136;-35.664;-63.766;2022-11-11T08:39:48;3.53;;;2.00;;
59974;SDS011;62136;-35.664;-63.766;2022-11-11T08:42:17;3.22;;;2.17;;
59974;SDS011;62136;-35.664;-63.766;2022-11-11T08:44:44;2.38;;;2.00;;
59974;SDS011;62136;-35.664;-63.766;2022-11-11T08:47:11;2.85;;;2.20;;
59974;SDS011;62136;-35.664;-63.766;2022-11-11T08:49:38;3.03;;;2.25;;
59974;SDS011;62136;-35.664;-63.766;2022-11-11T08:52:05;2.70;;;2.25;;
59974;SDS011;62136;-35.664;-63.766;2022-11-11T08:54:32;2.75;;;1.98;;
59974;SDS011;62136;-35.664;-63.766;2022-11-11T08:56:59;2.78;;;2.13;;
59974;SDS011;62136;-35.664;-63.766;2022-11-11T08:59:26;3.90;;;2.20;;
59974;SDS011;62136;-35.664;-63.766;2022-11-11T09:01:53;3.22;;;2.10;;
59974;SDS011;62136;-35.664;-63.766;2022-11-11T09:04:20;2.80;;;1.92;;
59974;SDS011;62136;-35.664;-63.766;2022-11-11T09:06:47;2.40;;;1.80;;
59974;SDS011;62136;-35.664;-63.766;2022-11-11T09:09:14;2.70;;;2.20;;
59974;SDS011;62136;-35.664;-63.766;2022-11-11T09:11:42;2.85;;;2.15;;
59974;SDS011;62136;-35.664;-63.766;2022-11-11T09:14:09;3.72;;;2.25;;
59974;SDS011;62136;-35.664;-63.766;2022-11-11T09:16:36;2.13;;;1.92;;
59974;SDS011;62136;-35.664;-63.766;2022-11-11T09:38:27;2.97;;;2.30;;
59974;SDS011;62136;-35.664;-63.766;2022-11-11T09:46:44;3.42;;;2.67;;
59974;SDS011;62136;-35.664;-63.766;2022-11-11T10:11:00;2.72;;;2.20;;
59974;SDS011;62136;-35.664;-63.766;2022-11-11T10:13:34;2.50;;;2.00;;
59974;SDS011;62136;-35.664;-63.766;2022-11-11T10:16:05;4.32;;;2.65;;
59974;SDS011;62136;-35.664;-63.766;2022-11-11T10:19:09;2.55;;;2.20;;
59974;SDS011;62136;-35.664;-63.766;2022-11-11T10:21:49;2.53;;;2.05;;
59974;SDS011;62136;-35.664;-63.766;2022-11-11T10:24:34;3.15;;;2.45;;
59974;SDS011;62136;-35.664;-63.766;2022-11-11T10:27:13;2.60;;;2.08;;
59974;SDS011;62136;-35.664;-63.766;2022-11-11T10:35:12;3.88;;;2.30;;
59974;SDS011;62136;-35.664;-63.766;2022-11-11T10:37:45;3.25;;;2.28;;
59974;SDS011;62136;-35.664;-63.766;2022-11-11T10:40:18;2.53;;;2.20;;
59974;SDS011;62136;-35.664;-63.766;2022-11-11T10:42:49;3.10;;;2.20;;
59974;SDS011;62136;-35.664;-63.766;2022-11-11T10:47:59;2.35;;;2.15;;
59974;SDS011;62136;-35.664;-63.766;2022-11-11T10:58:30;4.93;;;3.08;;
59974;SDS011;62136;-35.664;-63.766;2022-11-11T11:01:02;3.83;;;2.80;;
59974;SDS011;62136;-35.664;-63.766;2022-11-11T11:03:34;5.53;;;2.85;;
59974;SDS011;62136;-35.664;-63.766;2022-11-11T11:06:16;4.05;;;3.30;;
59974;SDS011;62136;-35.664;-63.766;2022-11-11T11:08:52;5.38;;;3.42;;
59974;SDS011;62136;-35.664;-63.766;2022-11-11T11:11:49;5.60;;;3.47;;
59974;SDS011;62136;-35.664;-63.766;2022-11-11T11:14:27;5.55;;;3.83;;
59974;SDS011;62136;-35.664;-63.766;2022-11-11T11:17:00;4.03;;;3.08;;
59974;SDS011;62136;-35.664;-63.766;2022-11-11T11:20:10;4.40;;;3.08;;
59974;SDS011;62136;-35.664;-63.766;2022-11-11T11:22:46;4.28;;;3.00;;
59974;SDS011;62136;-35.664;-63.766;2022-11-11T11:25:19;5.82;;;4.18;;
59974;SDS011;62136;-35.664;-63.766;2022-11-11T11:27:48;4.05;;;3.30;;
59974;SDS011;62136;-35.664;-63.766;2022-11-11T11:30:18;4.70;;;3.50;;
59974;SDS011;62136;-35.664;-63.766;2022-11-11T11:33:00;4.72;;;3.47;;
59974;SDS011;62136;-35.664;-63.766;2022-11-11T11:35:39;5.50;;;3.72;;
59974;SDS011;62136;-35.664;-63.766;2022-11-11T11:38:11;4.90;;;3.38;;
59974;SDS011;62136;-35.664;-63.766;2022-11-11T11:40:54;4.75;;;4.00;;
59974;SDS011;62136;-35.664;-63.766;2022-11-11T11:43:35;4.20;;;3.80;;
59974;SDS011;62136;-35.664;-63.766;2022-11-11T11:51:19;6.88;;;4.15;;
59974;SDS011;62136;-35.664;-63.766;2022-11-11T11:56:37;4.90;;;4.00;;
59974;SDS011;62136;-35.664;-63.766;2022-11-11T12:01:50;5.13;;;4.05;;
59974;SDS011;62136;-35.664;-63.766;2022-11-11T12:04:32;5.07;;;4.20;;
59974;SDS011;62136;-35.664;-63.766;2022-11-11T12:18:15;9.10;;;5.82;;
59974;SDS011;62136;-35.664;-63.766;2022-11-11T12:21:25;7.43;;;5.03;;
59974;SDS011;62136;-35.664;-63.766;2022-11-11T12:32:06;9.10;;;5.85;;
59974;SDS011;62136;-35.664;-63.766;2022-11-11T12:35:06;6.70;;;5.50;;
59974;SDS011;62136;-35.664;-63.766;2022-11-11T12:38:00;9.95;;;6.28;;
59974;SDS011;62136;-35.664;-63.766;2022-11-11T12:40:59;10.13;;;5.55;;
59974;SDS011;62136;-35.664;-63.766;2022-11-11T13:02:09;6.63;;;4.97;;
59974;SDS011;62136;-35.664;-63.766;2022-11-11T13:16:00;6.32;;;4.55;;
59974;SDS011;62136;-35.664;-63.766;2022-11-11T13:21:21;9.70;;;5.10;;
59974;SDS011;62136;-35.664;-63.766;2022-11-11T13:24:01;8.23;;;4.68;;
59974;SDS011;62136;-35.664;-63.766;2022-11-11T13:29:13;6.70;;;4.38;;
59974;SDS011;62136;-35.664;-63.766;2022-11-11T13:31:56;8.18;;;4.93;;
59974;SDS011;62136;-35.664;-63.766;2022-11-11T13:34:30;9.55;;;4.82;;
59974;SDS011;62136;-35.664;-63.766;2022-11-11T13:37:04;7.40;;;4.50;;
59974;SDS011;62136;-35.664;-63.766;2022-11-11T13:39:39;6.57;;;4.20;;
59974;SDS011;62136;-35.664;-63.766;2022-11-11T13:42:12;6.72;;;4.47;;
59974;SDS011;62136;-35.664;-63.766;2022-11-11T13:44:49;6.63;;;4.07;;
59974;SDS011;62136;-35.664;-63.766;2022-11-11T13:47:29;5.68;;;4.50;;
59974;SDS011;62136;-35.664;-63.766;2022-11-11T13:50:05;8.38;;;4.40;;
59974;SDS011;62136;-35.664;-63.766;2022-11-11T13:52:53;7.32;;;4.55;;
59974;SDS011;62136;-35.664;-63.766;2022-11-11T13:55:28;5.47;;;4.22;;
59974;SDS011;62136;-35.664;-63.766;2022-11-11T13:58:16;7.72;;;4.30;;
59974;SDS011;62136;-35.664;-63.766;2022-11-11T14:00:56;7.88;;;4.32;;
59974;SDS011;62136;-35.664;-63.766;2022-11-11T14:03:29;7.07;;;4.88;;
59974;SDS011;62136;-35.664;-63.766;2022-11-11T14:06:54;7.00;;;4.05;;
59974;SDS011;62136;-35.664;-63.766;2022-11-11T14:09:00;4.68;;;3.58;;
59974;SDS011;62136;-35.664;-63.766;2022-11-11T14:11:29;5.80;;;4.28;;
59974;SDS011;62136;-35.664;-63.766;2022-11-11T14:16:59;4.90;;;3.83;;
59974;SDS011;62136;-35.664;-63.766;2022-11-11T14:19:29;5.45;;;3.95;;
59974;SDS011;62136;-35.664;-63.766;2022-11-11T14:24:45;5.95;;;3.88;;
59974;SDS011;62136;-35.664;-63.766;2022-11-11T14:27:16;5.28;;;3.35;;
59974;SDS011;62136;-35.664;-63.766;2022-11-11T14:29:56;8.35;;;4.40;;
59974;SDS011;62136;-35.664;-63.766;2022-11-11T14:35:15;7.22;;;5.10;;
59974;SDS011;62136;-35.664;-63.766;2022-11-11T14:46:06;6.80;;;4.55;;
59974;SDS011;62136;-35.664;-63.766;2022-11-11T14:52:01;5.23;;;4.10;;
59974;SDS011;62136;-35.664;-63.766;2022-11-11T14:54:46;6.88;;;4.50;;
59974;SDS011;62136;-35.664;-63.766;2022-11-11T14:57:21;7.10;;;4.15;;
59974;SDS011;62136;-35.664;-63.766;2022-11-11T14:59:51;6.65;;;4.15;;
59974;SDS011;62136;-35.664;-63.766;2022-11-11T15:02:24;6.50;;;3.80;;
59974;SDS011;62136;-35.664;-63.766;2022-11-11T15:05:00;6.03;;;3.65;;
59974;SDS011;62136;-35.664;-63.766;2022-11-11T15:13:05;4.75;;;3.65;;
59974;SDS011;62136;-35.664;-63.766;2022-11-11T15:21:43;4.80;;;3.33;;
59974;SDS011;62136;-35.664;-63.766;2022-11-11T15:30:05;3.75;;;3.17;;
59974;SDS011;62136;-35.664;-63.766;2022-11-11T15:32:59;4.53;;;3.30;;
59974;SDS011;62136;-35.664;-63.766;2022-11-11T15:35:41;3.83;;;3.08;;
59974;SDS011;62136;-35.664;-63.766;2022-11-11T15:38:25;4.03;;;2.83;;
59974;SDS011;62136;-35.664;-63.766;2022-11-11T15:40:54;4.43;;;3.00;;
59974;SDS011;62136;-35.664;-63.766;2022-11-11T15:43:26;3.33;;;2.73;;
59974;SDS011;62136;-35.664;-63.766;2022-11-11T15:46:05;5.18;;;2.95;;
59974;SDS011;62136;-35.664;-63.766;2022-11-11T15:48:43;3.03;;;2.55;;
59974;SDS011;62136;-35.664;-63.766;2022-11-11T15:51:16;4.55;;;2.55;;
59974;SDS011;62136;-35.664;-63.766;2022-11-11T15:53:47;3.05;;;2.60;;
59974;SDS011;62136;-35.664;-63.766;2022-11-11T15:56:30;3.92;;;2.40;;
59974;SDS011;62136;-35.664;-63.766;2022-11-11T15:59:13;6.23;;;2.70;;
59974;SDS011;62136;-35.664;-63.766;2022-11-11T16:01:47;3.58;;;2.33;;
59974;SDS011;62136;-35.664;-63.766;2022-11-11T16:04:16;4.40;;;2.58;;
59974;SDS011;62136;-35.664;-63.766;2022-11-11T16:06:47;3.53;;;2.47;;
59974;SDS011;62136;-35.664;-63.766;2022-11-11T16:09:21;4.60;;;2.47;;
59974;SDS011;62136;-35.664;-63.766;2022-11-11T16:11:52;3.42;;;2.33;;
59974;SDS011;62136;-35.664;-63.766;2022-11-11T16:14:23;4.90;;;2.33;;
59974;SDS011;62136;-35.664;-63.766;2022-11-11T16:16:57;6.63;;;1.88;;
59974;SDS011;62136;-35.664;-63.766;2022-11-11T16:19:35;2.47;;;1.67;;
59974;SDS011;62136;-35.664;-63.766;2022-11-11T16:24:42;5.25;;;1.90;;
59974;SDS011;62136;-35.664;-63.766;2022-11-11T16:27:11;3.80;;;1.85;;
59974;SDS011;62136;-35.664;-63.766;2022-11-11T16:29:44;4.50;;;1.73;;
59974;SDS011;62136;-35.664;-63.766;2022-11-11T16:32:18;2.47;;;1.70;;
59974;SDS011;62136;-35.664;-63.766;2022-11-11T16:34:48;3.20;;;1.75;;
59974;SDS011;62136;-35.664;-63.766;2022-11-11T16:37:18;3.50;;;1.95;;
59974;SDS011;62136;-35.664;-63.766;2022-11-11T16:39:46;3.45;;;1.90;;
59974;SDS011;62136;-35.664;-63.766;2022-11-11T16:42:23;4.22;;;1.88;;
59974;SDS011;62136;-35.664;-63.766;2022-11-11T16:44:57;3.30;;;1.77;;
59974;SDS011;62136;-35.664;-63.766;2022-11-11T16:52:55;5.18;;;2.10;;
59974;SDS011;62136;-35.664;-63.766;2022-11-11T16:55:45;3.90;;;1.90;;
59974;SDS011;62136;-35.664;-63.766;2022-11-11T16:58:16;7.25;;;2.17;;
59974;SDS011;62136;-35.664;-63.766;2022-11-11T17:00:45;7.80;;;2.03;;
59974;SDS011;62136;-35.664;-63.766;2022-11-11T17:03:14;16.90;;;2.95;;
59974;SDS011;62136;-35.664;-63.766;2022-11-11T17:08:36;24.73;;;4.20;;
59974;SDS011;62136;-35.664;-63.766;2022-11-11T17:11:07;26.55;;;3.47;;
59974;SDS011;62136;-35.664;-63.766;2022-11-11T17:13:35;6.70;;;2.60;;
59974;SDS011;62136;-35.664;-63.766;2022-11-11T17:16:04;10.70;;;2.45;;
59974;SDS011;62136;-35.664;-63.766;2022-11-11T17:18:36;7.80;;;2.20;;
59974;SDS011;62136;-35.664;-63.766;2022-11-11T17:21:04;10.15;;;2.88;;
59974;SDS011;62136;-35.664;-63.766;2022-11-11T17:23:32;9.70;;;2.42;;
59974;SDS011;62136;-35.664;-63.766;2022-11-11T17:26:00;10.32;;;2.35;;
59974;SDS011;62136;-35.664;-63.766;2022-11-11T17:28:32;8.75;;;2.30;;
59974;SDS011;62136;-35.664;-63.766;2022-11-11T17:31:04;5.45;;;1.95;;
59974;SDS011;62136;-35.664;-63.766;2022-11-11T17:33:33;5.82;;;2.00;;
59974;SDS011;62136;-35.664;-63.766;2022-11-11T17:36:02;8.43;;;1.67;;
59974;SDS011;62136;-35.664;-63.766;2022-11-11T17:38:38;6.65;;;1.70;;
59974;SDS011;62136;-35.664;-63.766;2022-11-11T17:41:05;5.95;;;1.65;;
59974;SDS011;62136;-35.664;-63.766;2022-11-11T17:43:34;6.65;;;2.03;;
59974;SDS011;62136;-35.664;-63.766;2022-11-11T17:46:01;5.05;;;2.00;;
59974;SDS011;62136;-35.664;-63.766;2022-11-11T17:48:29;6.88;;;1.88;;
59974;SDS011;62136;-35.664;-63.766;2022-11-11T17:50:57;6.60;;;1.67;;